Mccluer Island, Australia
Current Conditions -  °F | °C
As of 4:00 AM on Sunday 21 Dec 2014 (Local Time) from YPDN Reporting Station
Broken Clouds Broken Clouds  
Wind Chill: 82°   Ceiling: 35000
Heat Index: 92°   Visibility: 6mi
Dew Point: 79°   Wind: 5mph
Humidity: 89%   Direction: 240°WSW
Pressure: 29.71"   Gusts: NA
Location:  11.07°S, 133°E
Report Text: YPDN 201900Z 24004KT 9999 FEW017 BKN350 28/26 Q1006
Loading
Personal Weather Stations






























Interactive Weather Map New forecast layout! Learn more

10-Day Weather Forecast

Advertisements
Track Severe Weather on mobile